Time;durP1;ratioP1;P1;durP2;ratioP2;P2;SDS_P1;SDS_P2;PMS_P1;PMS_P2;Temp;Humidity;BMP_temperature;BMP_pressure;BME280_temperature;BME280_humidity;BME280_pressure;Samples;Min_cycle;Max_cycle;Signal;HPM_P1;HPM_P2
2023/10/18 05:08:16;;;;;;;10.83;6.77;;;9.30;90.20;;;9.54;58.11;98120.59;6013933;23;98777;-86
2023/10/18 07:12:19;;;;;;;16.73;8.90;;;11.60;92.00;;;9.69;58.71;98066.88;4975403;28;120339;-86
2023/10/18 07:15:43;;;;;;;15.70;10.00;;;9.30;91.30;;;9.69;58.92;98072.41;4942442;28;118696;-86
2023/10/18 07:24:39;;;;;;;20.40;11.60;;;9.40;91.10;;;9.73;58.98;98054.06;5350862;23;98797;-87
2023/10/18 07:47:59;;;;;;;22.73;12.13;;;9.50;91.20;;;9.61;59.42;98009.78;5074172;23;96674;-87
2023/10/18 07:57:34;;;;;;;22.97;11.87;;;9.40;91.30;;;9.68;59.08;97994.34;4935966;28;97772;-86
2023/10/18 08:00:52;;;;;;;20.80;11.73;;;9.40;91.30;;;9.68;59.43;97999.06;4855148;28;123840;-86
2023/10/18 08:04:04;;;;;;;22.10;13.10;;;9.30;91.40;;;9.69;59.33;97998.72;4860901;28;123363;-88
2023/10/18 08:07:36;;;;;;;22.60;11.90;;;9.40;91.30;;;9.68;59.38;97994.34;4836071;28;120184;-86
2023/10/18 08:13:45;;;;;;;18.33;11.33;;;9.50;91.40;;;9.90;59.06;97995.28;5098313;23;96232;-87
2023/10/18 08:46:24;;;;;;;15.70;11.03;;;10.40;90.40;;;10.95;57.13;97985.47;4933908;28;121157;-89
2023/10/18 08:53:43;;;;;;;15.97;10.10;;;10.60;90.30;;;11.17;57.00;97989.06;4926359;28;124387;-89
2023/10/18 08:59:42;;;;;;;15.50;10.47;;;10.90;90.10;;;11.37;56.75;97974.44;4907347;28;119612;-88
2023/10/18 09:02:38;;;;;;;24.33;13.40;;;12.30;90.80;;;11.49;56.34;97971.72;4854587;28;122887;-87
2023/10/18 09:05:13;;;;;;;32.10;13.87;;;9.20;89.50;;;11.56;56.02;97967.59;4846412;29;124158;-88
2023/10/18 09:08:05;;;;;;;34.17;15.87;;;11.10;90.50;;;11.66;55.72;97975.47;4858286;28;119419;-90
2023/10/18 09:14:12;;;;;;;17.87;11.50;;;11.20;89.60;;;11.71;55.86;97953.94;4845464;29;123771;-88
2023/10/18 09:17:00;;;;;;;20.40;12.83;;;11.30;89.50;;;11.78;55.29;97956.16;4831313;29;123756;-86
2023/10/18 09:19:38;;;;;;;24.37;13.43;;;11.30;89.50;;;11.80;55.11;97958.59;4823584;29;119163;-88
2023/10/18 09:22:29;;;;;;;24.13;13.63;;;11.30;89.10;;;11.83;55.13;97958.72;4823987;29;119240;-86
2023/10/18 09:25:18;;;;;;;22.27;12.63;;;11.40;89.30;;;11.87;54.97;97958.84;4849340;29;122819;-87
2023/10/18 09:27:47;;;;;;;21.27;11.50;;;9.40;87.90;;;11.88;55.26;97939.16;4794618;29;123703;-87
2023/10/18 09:31:06;;;;;;;25.70;13.17;;;10.10;87.50;;;11.95;55.00;97927.50;4773511;29;117618;-88
2023/10/18 09:33:52;;;;;;;20.87;13.10;;;11.50;88.70;;;12.00;54.94;97926.47;4749811;29;118906;-87
2023/10/18 09:37:15;;;;;;;18.30;11.13;;;11.50;88.30;;;11.99;54.66;97922.09;4760899;29;122990;-86
2023/10/18 09:40:14;;;;;;;22.77;13.27;;;11.50;88.40;;;12.07;54.81;97912.88;4757490;29;124521;-87
2023/10/18 09:43:13;;;;;;;23.10;12.60;;;13.90;90.20;;;12.12;54.73;97907.13;4794895;29;120311;-86
2023/10/18 09:46:01;;;;;;;15.17;10.80;;;11.70;88.30;;;12.23;54.68;97918.56;4797521;29;117640;-87
2023/10/18 09:48:44;;;;;;;13.97;10.30;;;11.80;88.20;;;12.32;54.41;97908.97;4778861;29;123148;-88
2023/10/18 09:51:16;;;;;;;17.90;12.53;;;11.90;88.10;;;12.38;54.24;97913.16;4802123;29;124538;-87
2023/10/18 09:53:58;;;;;;;19.73;11.93;;;11.90;87.80;;;12.49;54.09;97907.13;4805240;29;118237;-88
2023/10/18 09:56:34;;;;;;;22.30;12.50;;;12.00;87.60;;;12.55;53.82;97900.22;4793231;29;117826;-88
2023/10/18 09:59:15;;;;;;;18.97;10.83;;;12.10;87.50;;;12.61;53.33;97907.13;4788147;29;123183;-89
2023/10/18 10:04:32;;;;;;;17.87;10.80;;;12.20;87.00;;;12.75;53.29;97898.44;4834541;29;118856;-87
2023/10/18 10:07:27;;;;;;;18.20;11.63;;;9.70;85.60;;;12.81;52.84;97903.41;4858744;28;118077;-89
2023/10/18 10:10:07;;;;;;;14.37;10.70;;;12.40;86.20;;;12.85;52.70;97900.75;4815493;29;123199;-88
2023/10/18 10:12:49;;;;;;;17.43;10.87;;;12.40;86.10;;;12.93;52.92;97888.72;4825812;29;122260;-88
2023/10/18 10:15:24;;;;;;;18.40;9.93;;;12.50;86.10;;;13.02;52.91;97877.47;4839910;29;117744;-84
2023/10/18 10:17:58;;;;;;;17.27;10.80;;;12.50;86.10;;;13.14;52.27;97877.44;4863730;28;117839;-87
2023/10/18 10:20:33;;;;;;;19.00;11.53;;;13.50;86.80;;;13.22;52.13;97876.47;4854927;28;123180;-87
2023/10/18 10:23:15;;;;;;;22.10;11.20;;;12.70;85.50;;;13.31;52.11;97872.78;4876937;28;124183;-87
2023/10/18 10:26:15;;;;;;;18.03;11.20;;;12.80;85.50;;;13.39;51.82;97855.97;4876160;28;117960;-88
2023/10/18 10:31:57;;;;;;;19.23;10.70;;;12.90;84.60;;;13.52;51.85;97858.69;4845892;28;124374;-88
2023/10/18 10:34:32;;;;;;;13.73;9.97;;;14.80;86.60;;;13.63;51.45;97854.25;4831399;29;122356;-87
2023/10/18 10:37:08;;;;;;;20.33;11.60;;;15.10;86.90;;;13.76;51.27;97854.97;4857351;28;118392;-87
2023/10/18 10:39:44;;;;;;;16.10;9.70;;;13.20;84.60;;;13.87;51.40;97850.50;4838329;28;120337;-89
2023/10/18 10:42:41;;;;;;;18.00;11.20;;;13.30;84.70;;;14.05;51.02;97846.22;4824254;29;123793;-91
2023/10/18 10:45:23;;;;;;;18.43;11.47;;;13.40;84.70;;;14.23;51.08;97843.84;4803155;29;122968;-90
2023/10/18 10:47:55;;;;;;;15.77;10.03;;;13.60;84.50;;;14.40;50.16;97839.06;4850481;28;120452;-88
2023/10/18 10:50:45;;;;;;;18.77;11.67;;;13.70;84.40;;;14.52;49.11;97817.56;4876657;28;119075;-88
2023/10/18 10:53:28;;;;;;;16.57;11.30;;;13.90;82.40;;;14.58;49.12;97816.09;4875079;28;123645;-88
2023/10/18 10:56:03;;;;;;;14.63;10.07;;;14.00;82.30;;;14.71;49.72;97818.78;4888536;28;124451;-89
2023/10/18 10:58:38;;;;;;;14.80;9.50;;;14.10;82.90;;;14.86;49.11;97804.00;4888859;28;117586;-89
2023/10/18 11:01:05;;;;;;;16.17;9.80;;;16.70;85.00;;;15.01;48.59;97791.97;4862673;28;118201;-89
2023/10/18 11:06:27;;;;;;;19.40;10.53;;;15.50;82.70;;;15.20;48.19;97784.81;4880208;28;124476;-88
2023/10/18 11:08:56;;;;;;;16.03;10.97;;;14.60;80.80;;;15.31;48.14;97796.94;4869269;28;118807;-88
2023/10/18 11:11:26;;;;;;;16.10;9.83;;;14.80;81.00;;;15.41;47.84;97810.25;4888122;28;118915;-87
2023/10/18 11:13:55;;;;;;;15.70;9.70;;;14.80;80.50;;;15.57;47.62;97807.38;4881694;28;123548;-90
2023/10/18 11:16:22;;;;;;;12.63;8.50;;;15.00;80.50;;;15.72;47.26;97797.34;4848469;28;123232;-89
2023/10/18 11:18:49;;;;;;;13.80;8.97;;;15.10;80.40;;;15.88;47.27;97780.50;4875905;28;118905;-89
2023/10/18 11:21:29;;;;;;;15.07;8.97;;;15.90;80.60;;;15.99;46.59;97769.53;4866628;28;117350;-89
2023/10/18 11:23:57;;;;;;;11.60;8.20;;;15.40;78.70;;;16.01;46.31;97761.56;4882481;28;123696;-88
2023/10/18 11:26:25;;;;;;;9.97;7.20;;;15.60;78.40;;;16.06;46.39;97762.06;4850929;28;122915;-89
2023/10/18 11:28:56;;;;;;;12.43;7.90;;;15.50;78.40;;;16.14;46.21;97760.19;4867708;28;120378;-89
2023/10/18 11:31:28;;;;;;;12.07;7.77;;;15.60;78.20;;;16.21;46.26;97748.38;4857002;28;120010;-88
2023/10/18 11:34:04;;;;;;;12.27;7.93;;;18.50;80.90;;;16.26;45.77;97750.81;4871179;28;124403;-91
2023/10/18 11:36:35;;;;;;;12.80;8.20;;;15.70;77.40;;;16.25;45.56;97738.06;4858082;28;122880;-91
2023/10/18 11:39:36;;;;;;;13.20;7.83;;;15.80;76.80;;;16.25;45.48;97732.47;4866190;28;118549;-90
2023/10/18 11:41:59;;;;;;;12.13;7.10;;;15.80;76.30;;;16.24;45.22;97742.03;4863736;28;118572;-90
2023/10/18 11:44:34;;;;;;;9.93;7.13;;;16.20;76.30;;;16.25;45.05;97724.13;4851503;28;124169;-89
2023/10/18 11:47:19;;;;;;;12.47;8.30;;;15.80;75.70;;;16.26;44.53;97714.59;4869732;28;122856;-89
2023/10/18 11:49:54;;;;;;;10.93;8.20;;;15.30;74.10;;;16.27;44.78;97708.63;4873061;28;117860;-90
2023/10/18 11:52:30;;;;;;;15.63;7.80;;;16.90;75.90;;;16.24;44.84;97703.00;4874542;28;117660;-90
2023/10/18 11:55:10;;;;;;;11.97;6.83;;;15.90;75.00;;;16.31;45.28;97698.34;4881973;28;123517;-89
2023/10/18 11:57:40;;;;;;;12.83;8.37;;;13.70;73.40;;;16.37;45.11;97698.81;4876064;28;123014;-88
2023/10/18 12:02:49;;;;;;;13.30;7.60;;;16.00;75.10;;;16.43;44.81;97690.91;4869010;28;118094;-90
2023/10/18 12:05:17;;;;;;;12.60;9.00;;;16.00;75.40;;;16.44;45.00;97698.09;4877267;28;122734;-90
2023/10/18 12:08:12;;;;;;;11.20;7.83;;;15.90;74.90;;;16.44;44.27;97692.50;5003547;28;96886;-89
2023/10/18 12:10:40;;;;;;;14.80;7.70;;;16.00;73.80;;;16.38;44.51;97686.47;4982394;28;107293;-87
2023/10/18 12:13:11;;;;;;;9.67;6.47;;;16.00;74.00;;;16.38;44.51;97685.66;4977613;28;122680;-86
2023/10/18 12:15:39;;;;;;;6.60;5.27;;;16.00;73.80;;;16.40;44.68;97686.91;4988664;28;123508;-86
2023/10/18 12:18:14;;;;;;;8.80;5.00;;;16.00;74.20;;;16.45;44.74;97683.78;4971452;28;106340;-86
2023/10/18 12:20:44;;;;;;;8.53;4.90;;;16.10;74.40;;;16.51;44.73;97681.47;4967676;28;106627;-88
2023/10/18 12:23:13;;;;;;;10.00;6.23;;;16.10;74.40;;;16.56;44.45;97675.56;4965649;28;124023;-87
2023/10/18 12:25:43;;;;;;;11.47;6.33;;;16.20;74.00;;;16.56;44.46;97656.03;4986885;28;124035;-88
2023/10/18 12:28:35;;;;;;;9.10;6.57;;;16.20;73.60;;;16.58;44.49;97659.25;4966491;28;106429;-90
2023/10/18 12:31:09;;;;;;;10.00;6.63;;;16.20;73.50;;;16.55;44.18;97657.22;4965788;28;106378;-87
2023/10/18 12:33:40;;;;;;;10.23;5.77;;;16.20;73.30;;;16.54;44.38;97647.25;4970219;28;124190;-87
2023/10/18 12:36:22;;;;;;;8.83;6.17;;;16.20;73.40;;;16.56;44.25;97644.88;4971025;28;123841;-87
2023/10/18 12:38:49;;;;;;;7.53;5.30;;;16.10;73.20;;;16.55;44.41;97652.44;5012511;28;106694;-87
2023/10/18 12:43:45;;;;;;;7.50;5.17;;;16.20;73.40;;;16.60;44.74;97637.34;4980040;28;124480;-88
2023/10/18 12:46:15;;;;;;;7.73;5.40;;;16.30;73.70;;;16.64;44.63;97626.25;4966935;28;122519;-90
2023/10/18 12:48:45;;;;;;;7.10;5.33;;;16.30;73.70;;;16.70;44.54;97624.72;4967028;28;107728;-87
2023/10/18 12:51:17;;;;;;;7.10;5.00;;;17.80;75.10;;;16.73;44.53;97613.59;4966357;28;107381;-86
2023/10/18 12:53:48;;;;;;;7.00;4.80;;;16.40;73.70;;;16.78;44.39;97604.91;4968139;28;124034;-89
2023/10/18 12:56:23;;;;;;;8.30;4.83;;;16.40;73.60;;;16.82;44.58;97598.56;4971084;28;124349;-88
2023/10/18 12:59:59;;;;;;;9.30;5.33;;;17.50;74.60;;;16.83;44.27;97616.91;4968911;28;107564;-88
2023/10/18 13:01:58;;;;;;;6.03;4.13;;;16.50;73.60;;;16.86;44.54;97616.94;4971625;28;108333;-88
2023/10/18 13:04:24;;;;;;;6.10;4.13;;;17.50;74.40;;;16.87;44.53;97623.31;4969553;28;123138;-88
2023/10/18 13:06:54;;;;;;;5.23;3.83;;;17.80;74.60;;;16.89;44.23;97623.75;5000652;28;123235;-88
2023/10/18 13:09:23;;;;;;;6.13;4.40;;;16.50;73.10;;;16.90;44.22;97616.97;4985740;28;106724;-88
2023/10/18 13:12:01;;;;;;;6.10;4.10;;;16.60;73.20;;;16.91;44.13;97610.22;4967735;28;107487;-88
2023/10/18 13:14:31;;;;;;;7.07;4.73;;;16.60;73.10;;;16.92;44.16;97595.88;4974384;28;124022;-87
2023/10/18 13:17:05;;;;;;;9.57;5.73;;;16.60;72.80;;;16.94;43.87;97598.28;4966425;28;123822;-88
2023/10/18 13:19:34;;;;;;;11.90;6.40;;;16.60;72.60;;;16.92;43.92;97586.69;4974152;28;108182;-89
2023/10/18 13:22:00;;;;;;;14.87;6.30;;;16.60;72.70;;;16.98;44.02;97576.81;4967997;28;106400;-88
2023/10/18 13:24:32;;;;;;;9.30;5.70;;;16.60;72.80;;;17.02;44.02;97577.63;4957012;28;123488;-88
2023/10/18 13:27:00;;;;;;;10.53;4.97;;;16.60;72.80;;;17.05;43.63;97574.06;4963361;28;123859;-87
2023/10/18 13:29:31;;;;;;;11.47;5.20;;;18.40;74.10;;;17.07;43.59;97570.91;4963716;28;107523;-88
2023/10/18 13:31:58;;;;;;;12.50;6.70;;;16.70;72.30;;;17.12;43.67;97567.75;4957407;28;107267;-87
2023/10/18 13:34:39;;;;;;;11.37;5.97;;;16.70;72.30;;;17.13;43.50;97564.56;4970572;28;124124;-87
2023/10/18 13:37:10;;;;;;;16.60;7.13;;;16.80;72.00;;;17.15;43.53;97553.81;4983984;28;123948;-86
2023/10/18 13:39:47;;;;;;;8.70;5.20;;;16.80;71.80;;;17.17;43.07;97559.81;4966826;28;107242;-88
2023/10/18 13:42:14;;;;;;;14.07;4.50;;;16.80;71.60;;;17.18;43.20;97555.84;4954724;28;107242;-89
2023/10/18 13:44:43;;;;;;;6.63;4.27;;;16.80;71.40;;;17.21;43.23;97549.47;5002606;28;123881;-88
2023/10/18 13:47:12;;;;;;;4.17;3.33;;;16.90;71.30;;;17.23;42.76;97538.72;4969154;28;124858;-87
2023/10/18 13:49:40;;;;;;;5.23;3.23;;;16.90;70.90;;;17.25;42.57;97534.75;4989734;28;106495;-83
2023/10/18 13:52:10;;;;;;;4.13;3.20;;;16.90;70.60;;;17.24;42.69;97517.19;4973717;28;106995;-86
2023/10/18 13:54:40;;;;;;;6.20;3.27;;;16.90;70.60;;;17.28;42.82;97531.19;4960317;28;123955;-85
2023/10/18 13:57:09;;;;;;;4.27;3.23;;;16.90;70.50;;;17.29;42.61;97533.59;4991571;28;123583;-86
2023/10/18 13:59:37;;;;;;;18.97;5.70;;;16.90;70.00;;;17.32;43.85;97534.78;4971775;28;106836;-90
2023/10/18 14:02:06;;;;;;;26.33;9.83;;;16.90;71.40;;;17.38;44.52;97531.28;4956791;28;107672;-89
2023/10/18 14:04:32;;;;;;;28.10;8.07;;;17.00;73.20;;;17.43;43.80;97522.50;4955898;28;124111;-89
2023/10/18 14:06:59;;;;;;;50.80;13.27;;;17.00;72.90;;;17.47;44.14;97528.13;5001074;28;123493;-88
2023/10/18 14:09:32;;;;;;;24.77;8.43;;;17.10;72.70;;;17.52;43.84;97529.75;4965104;28;107459;-89
2023/10/18 14:12:00;;;;;;;45.03;11.77;;;17.10;72.60;;;17.51;43.99;97523.34;4967149;28;106564;-84
2023/10/18 14:14:27;;;;;;;52.83;13.77;;;17.10;72.40;;;17.56;44.15;97522.97;4954175;28;124083;-85
2023/10/18 14:16:54;;;;;;;21.20;7.60;;;17.20;73.10;;;17.63;43.73;97520.25;4966542;28;123834;-84
2023/10/18 14:19:24;;;;;;;32.20;9.40;;;17.20;72.50;;;17.64;43.82;97516.25;4965802;28;106510;-84
2023/10/18 14:21:51;;;;;;;11.20;5.00;;;17.20;72.30;;;17.66;43.58;97525.03;4966465;28;107164;-83
2023/10/18 14:24:21;;;;;;;10.20;4.60;;;17.20;72.10;;;17.65;42.61;97517.84;4952249;28;124077;-85
2023/10/18 14:26:48;;;;;;;8.10;4.30;;;17.30;70.80;;;17.60;41.97;97515.44;4962673;28;123896;-84
2023/10/18 14:29:18;;;;;;;11.97;4.57;;;17.30;69.40;;;17.56;42.28;97528.56;4956068;28;108148;-85
2023/10/18 14:31:45;;;;;;;15.17;6.60;;;17.30;69.90;;;17.52;43.37;97527.75;4958709;28;107086;-82
2023/10/18 14:34:12;;;;;;;11.10;5.93;;;17.30;70.60;;;17.50;42.68;97520.97;4951653;28;124000;-86
2023/10/18 14:36:39;;;;;;;13.43;5.33;;;17.20;70.30;;;17.49;43.13;97519.34;4954490;28;124204;-84
2023/10/18 14:39:06;;;;;;;8.80;5.13;;;17.20;70.60;;;17.48;42.51;97521.34;4959555;28;107585;-85
2023/10/18 14:41:33;;;;;;;9.80;5.20;;;18.80;71.50;;;17.49;42.75;97527.72;4954364;28;107825;-84
2023/10/18 14:44:00;;;;;;;14.00;5.80;;;17.20;70.50;;;17.49;43.59;97527.72;4956470;28;123069;-90
2023/10/18 14:46:29;;;;;;;9.97;5.30;;;17.20;71.00;;;17.52;43.14;97524.19;4951495;28;124688;-86
2023/10/18 14:48:58;;;;;;;7.13;4.60;;;17.20;71.00;;;17.52;42.97;97505.41;4955241;28;107266;-85
2023/10/18 14:51:25;;;;;;;11.23;5.30;;;17.20;70.70;;;17.54;43.28;97521.75;4970739;28;106826;-85
2023/10/18 14:53:55;;;;;;;7.43;5.10;;;17.20;70.80;;;17.52;43.18;97518.59;4955730;28;124088;-86
2023/10/18 14:56:24;;;;;;;9.53;5.13;;;17.20;70.80;;;17.44;43.23;97506.56;4971946;28;122653;-83
2023/10/18 14:58:55;;;;;;;8.77;4.87;;;17.20;70.90;;;17.35;43.98;97520.06;4978224;28;106476;-85
2023/10/18 15:01:21;;;;;;;9.47;4.90;;;17.10;72.10;;;17.27;44.73;97502.44;4954631;28;106847;-86
2023/10/18 15:03:48;;;;;;;7.33;5.20;;;17.00;72.30;;;17.25;44.87;97509.63;4967363;28;123661;-86
2023/10/18 15:06:18;;;;;;;6.23;4.43;;;17.00;72.80;;;17.23;45.05;97508.03;4998809;28;122629;-84
2023/10/18 15:08:49;;;;;;;8.03;4.93;;;17.00;73.20;;;17.22;45.64;97494.44;4961973;28;107972;-86
2023/10/18 15:11:19;;;;;;;7.93;5.63;;;17.00;73.90;;;17.19;45.68;97498.84;4965427;28;108103;-86
2023/10/18 15:13:47;;;;;;;6.83;4.57;;;16.90;74.30;;;17.18;46.08;97500.00;4965347;28;124398;-84
2023/10/18 15:16:18;;;;;;;7.83;5.73;;;16.90;74.70;;;17.17;46.30;97504.00;4966941;28;123779;-86
2023/10/18 15:18:46;;;;;;;10.40;5.00;;;16.90;75.10;;;17.12;46.45;97501.56;4959733;28;107152;-84
2023/10/18 15:21:15;;;;;;;13.00;6.27;;;16.80;75.20;;;17.06;46.73;97491.97;4952718;28;106885;-85
2023/10/18 15:23:43;;;;;;;8.83;5.50;;;16.70;76.20;;;16.93;47.01;97488.69;4952950;28;123535;-85
2023/10/18 15:26:10;;;;;;;8.83;5.20;;;16.60;76.10;;;16.87;47.21;97489.41;4959753;28;124088;-85
2023/10/18 15:28:39;;;;;;;7.10;5.13;;;16.60;76.30;;;16.83;47.54;97488.59;4937447;28;106732;-84
2023/10/18 15:31:08;;;;;;;13.27;6.50;;;16.60;76.60;;;16.78;47.79;97504.47;4989347;28;107360;-84
2023/10/18 15:33:40;;;;;;;7.30;4.90;;;16.60;77.00;;;16.72;48.07;97508.00;4956817;28;125729;-85
2023/10/18 15:36:17;;;;;;;6.43;4.43;;;16.50;77.30;;;16.72;48.50;97516.34;4955623;28;121899;-86
2023/10/18 15:38:48;;;;;;;8.77;5.27;;;16.50;77.70;;;16.69;48.70;97504.00;4973223;28;106624;-83
2023/10/18 15:41:19;;;;;;;7.17;4.90;;;16.50;78.20;;;16.62;49.13;97506.69;4968481;28;107427;-83
2023/10/18 15:43:49;;;;;;;6.80;5.13;;;16.50;78.70;;;16.58;49.34;97508.66;4951898;28;124946;-86
2023/10/18 15:46:32;;;;;;;9.27;5.37;;;16.40;79.10;;;16.53;49.69;97507.03;4951068;28;125160;-84
2023/10/18 15:49:05;;;;;;;6.87;4.87;;;16.40;79.40;;;16.49;50.08;97503.38;4963332;28;107478;-85
2023/10/18 15:51:36;;;;;;;6.13;4.60;;;16.40;79.90;;;16.45;50.23;97501.78;4952148;28;107255;-86
2023/10/18 15:54:03;;;;;;;7.53;5.47;;;16.30;80.30;;;16.44;50.36;97500.16;4965333;28;124257;-85
2023/10/18 15:56:33;;;;;;;7.40;5.60;;;16.30;80.70;;;16.43;50.72;97498.56;4964754;28;123850;-84
2023/10/18 15:59:01;;;;;;;9.00;5.53;;;16.30;81.30;;;16.37;51.31;97486.16;4959740;28;107685;-86
2023/10/18 16:01:33;;;;;;;10.50;5.70;;;16.20;81.90;;;16.32;51.60;97481.72;4966507;28;107212;-86
2023/10/18 16:03:59;;;;;;;7.97;5.47;;;16.90;83.40;;;16.28;51.72;97480.88;4952525;28;123188;-87
2023/10/18 16:06:25;;;;;;;9.23;5.70;;;16.10;83.50;;;16.24;52.47;97477.25;4953098;28;123635;-87
2023/10/18 16:08:55;;;;;;;9.10;5.83;;;16.10;83.90;;;16.17;53.83;97472.41;4954475;28;107539;-87
2023/10/18 16:11:22;;;;;;;11.97;6.00;;;16.00;86.00;;;16.09;54.77;97484.66;4962605;28;107251;-86
2023/10/18 16:13:53;;;;;;;8.67;5.37;;;18.80;90.20;;;15.97;55.25;97477.38;4970601;28;123819;-86
2023/10/18 16:16:22;;;;;;;10.60;5.50;;;15.80;88.50;;;15.87;55.73;97472.47;4969066;28;123865;-86
2023/10/18 16:18:48;;;;;;;9.67;5.97;;;15.70;89.30;;;15.82;56.08;97462.47;4983057;28;108227;-86
2023/10/18 16:21:15;;;;;;;7.40;5.63;;;15.70;89.40;;;15.79;56.13;97466.00;4962665;28;108903;-85
2023/10/18 16:23:41;;;;;;;8.27;4.80;;;15.70;90.20;;;15.74;56.48;97457.19;4973789;28;124028;-86
2023/10/18 16:26:17;;;;;;;8.40;5.93;;;15.70;90.10;;;15.75;57.25;97469.97;4953976;28;124356;-87
2023/10/18 16:28:49;;;;;;;8.07;5.50;;;15.60;90.30;;;15.71;56.96;97458.75;4977595;28;109359;-88
2023/10/18 16:31:17;;;;;;;11.30;6.60;;;15.60;90.50;;;15.66;57.65;97464.63;4952541;28;109857;-85
2023/10/18 16:33:48;;;;;;;10.23;5.80;;;15.50;91.10;;;15.60;57.71;97458.59;4984100;28;123668;-86
2023/10/18 16:36:16;;;;;;;8.87;5.27;;;16.50;91.50;;;15.57;57.58;97448.22;4958980;28;123287;-85
2023/10/18 16:38:44;;;;;;;6.50;4.63;;;15.40;91.00;;;15.56;57.84;97434.69;4967237;28;109501;-85
2023/10/18 16:41:13;;;;;;;9.93;6.07;;;15.40;91.20;;;15.53;58.13;97436.25;4954633;28;107776;-87
2023/10/18 16:43:41;;;;;;;10.97;5.90;;;15.40;91.40;;;15.50;58.44;97427.84;4963078;28;124266;-88
2023/10/18 16:46:11;;;;;;;9.60;4.33;;;15.30;91.40;;;15.48;58.49;97424.66;4966008;28;123629;-85
2023/10/18 16:48:39;;;;;;;7.23;5.23;;;15.30;91.50;;;15.48;58.57;97416.31;4953227;28;109690;-86
2023/10/18 16:51:10;;;;;;;8.23;5.17;;;15.30;91.60;;;15.46;58.65;97406.34;4957752;28;108557;-88
2023/10/18 16:53:39;;;;;;;9.13;5.33;;;15.30;91.70;;;15.47;58.50;97404.34;4955895;28;124162;-86
2023/10/18 16:56:08;;;;;;;10.50;6.20;;;15.20;92.10;;;15.42;58.92;97411.06;4963284;28;124241;-88
2023/10/18 16:58:36;;;;;;;8.53;5.13;;;15.20;92.00;;;15.37;59.11;97410.59;4968077;28;110491;-89
2023/10/18 17:01:12;;;;;;;9.00;6.10;;;15.20;92.10;;;15.37;59.08;97416.97;4960100;28;108901;-88
2023/10/18 17:03:41;;;;;;;7.47;5.00;;;15.20;92.20;;;15.31;59.09;97417.66;4973338;28;124031;-87
2023/10/18 17:06:13;;;;;;;10.33;6.57;;;15.20;92.20;;;15.29;59.16;97418.06;4967661;28;123895;-89
2023/10/18 17:08:41;;;;;;;8.57;6.10;;;16.20;92.60;;;15.24;59.12;97418.38;4971380;28;109401;-88
2023/10/18 17:11:10;;;;;;;10.73;5.77;;;15.10;92.20;;;15.24;59.17;97419.19;4963180;28;108788;-89
2023/10/18 17:13:37;;;;;;;9.47;5.80;;;15.20;92.20;;;15.24;58.90;97419.19;4964555;28;124766;-90
2023/10/18 17:16:08;;;;;;;10.47;6.30;;;15.10;92.20;;;15.22;59.13;97426.28;4976843;28;123777;-90
2023/10/18 17:18:35;;;;;;;10.13;6.60;;;15.00;92.30;;;15.19;59.38;97427.06;4956446;28;110701;-89
2023/10/18 17:21:02;;;;;;;10.20;5.80;;;15.00;92.20;;;15.16;58.99;97425.81;4966612;28;109823;-89
2023/10/18 17:23:29;;;;;;;10.13;5.50;;;15.00;92.30;;;15.18;59.30;97423.47;4989295;28;123305;-87
2023/10/18 17:25:55;;;;;;;9.10;5.80;;;15.00;92.30;;;15.18;59.44;97408.78;4957951;28;123863;-89
2023/10/18 17:28:22;;;;;;;8.13;5.73;;;15.00;92.30;;;15.19;59.75;97416.72;4960561;28;108979;-88
2023/10/18 17:30:49;;;;;;;7.50;5.60;;;13.80;91.90;;;15.15;59.60;97413.09;4969194;28;108919;-90
2023/10/18 17:33:15;;;;;;;9.00;5.77;;;15.00;92.40;;;15.13;59.58;97411.88;4957273;28;124006;-87
2023/10/18 17:35:46;;;;;;;10.97;6.77;;;14.90;92.40;;;15.08;59.75;97413.00;4962822;28;124076;-91
2023/10/18 17:38:16;;;;;;;9.83;6.17;;;14.90;92.60;;;15.05;59.97;97421.31;4955833;28;109176;-90
2023/10/18 17:40:43;;;;;;;9.10;6.13;;;14.90;93.00;;;14.99;60.13;97418.03;4967446;28;109481;-89
2023/10/18 17:43:15;;;;;;;8.77;6.20;;;14.80;92.70;;;14.93;60.33;97403.63;4965209;28;123460;-92
2023/10/18 17:45:42;;;;;;;9.10;7.13;;;14.80;92.80;;;14.88;60.33;97383.69;4988924;28;123171;-90
2023/10/18 17:48:15;;;;;;;10.67;6.30;;;14.80;92.90;;;14.87;60.57;97382.91;4970518;28;109137;-91
2023/10/18 17:50:41;;;;;;;8.03;5.97;;;14.80;92.90;;;14.88;60.43;97392.84;4966270;28;108860;-89
2023/10/18 17:53:12;;;;;;;11.17;7.00;;;14.70;93.10;;;14.90;60.66;97387.72;4965149;28;124745;-87
2023/10/18 17:55:44;;;;;;;8.50;5.80;;;14.70;93.10;;;14.90;60.79;97401.63;4969375;28;123897;-91
2023/10/18 17:58:13;;;;;;;8.47;5.83;;;14.80;93.30;;;14.89;60.78;97402.81;4983382;28;109200;-89
2023/10/18 18:00:40;;;;;;;8.27;6.23;;;14.70;93.30;;;14.82;60.78;97397.13;4961064;28;109045;-91
2023/10/18 18:03:07;;;;;;;10.73;6.70;;;14.70;93.30;;;14.83;60.99;97387.63;4991274;28;124618;-91
2023/10/18 18:05:38;;;;;;;13.00;8.37;;;12.60;92.40;;;14.84;61.11;97372.53;4960722;28;123304;-89
2023/10/18 18:08:10;;;;;;;9.97;6.57;;;13.80;93.10;;;14.80;60.93;97357.75;4963044;28;109842;-89
2023/10/18 18:10:50;;;;;;;10.63;7.20;;;14.60;93.40;;;14.77;61.19;97375.19;4954955;28;110206;-88
2023/10/18 18:13:21;;;;;;;10.97;6.90;;;15.90;94.10;;;14.75;61.27;97374.81;4963119;28;124466;-89
2023/10/18 18:15:51;;;;;;;11.53;6.73;;;15.50;93.90;;;14.74;61.46;97375.97;4963373;28;123841;-91
2023/10/18 18:18:24;;;;;;;9.97;6.20;;;14.50;93.50;;;14.76;61.23;97373.63;4963366;28;108156;-88
2023/10/18 18:20:55;;;;;;;10.87;7.00;;;14.50;93.60;;;14.75;61.34;97358.13;4956565;28;108958;-89
2023/10/18 18:23:24;;;;;;;8.97;7.00;;;14.50;93.70;;;14.77;61.38;97372.41;4969031;28;123386;-93
2023/10/18 18:25:55;;;;;;;9.17;6.70;;;14.60;93.80;;;14.79;61.41;97364.50;4958289;28;123809;-89
2023/10/18 18:28:23;;;;;;;13.20;8.20;;;14.50;93.80;;;14.81;61.51;97359.38;4967109;28;109414;-88
2023/10/18 18:30:51;;;;;;;12.93;7.87;;;14.70;94.00;;;14.79;61.67;97354.19;4962989;28;109180;-89
2023/10/18 18:33:18;;;;;;;10.40;7.27;;;14.60;94.00;;;14.78;61.59;97357.38;4969971;28;123879;-87
2023/10/18 18:35:44;;;;;;;11.00;7.10;;;14.50;93.90;;;14.75;61.54;97364.47;4972294;28;123597;-87
2023/10/18 18:38:13;;;;;;;9.93;7.30;;;14.50;93.90;;;14.76;61.61;97348.59;4969712;28;108923;-89
2023/10/18 18:40:39;;;;;;;11.70;7.30;;;14.50;93.90;;;14.76;61.63;97349.38;4973817;28;108033;-88
2023/10/18 18:43:08;;;;;;;14.20;7.83;;;14.50;93.90;;;14.76;61.79;97338.25;4967241;28;124593;-91
2023/10/18 18:45:37;;;;;;;15.90;9.60;;;14.50;94.00;;;14.75;61.84;97335.88;4955550;28;126106;-90
2023/10/18 18:48:05;;;;;;;14.70;7.87;;;14.50;94.10;;;14.73;61.68;97338.22;4954081;28;111007;-87
2023/10/18 18:50:31;;;;;;;10.27;7.40;;;14.50;94.00;;;14.71;61.79;97335.81;4964695;28;108260;-88
2023/10/18 18:52:58;;;;;;;13.10;7.70;;;14.50;94.30;;;14.68;61.53;97328.22;4955844;28;124232;-89
2023/10/18 18:55:26;;;;;;;12.03;7.60;;;14.50;94.10;;;14.69;61.63;97337.34;4965256;28;123888;-89
2023/10/18 18:57:55;;;;;;;10.93;7.33;;;14.50;94.00;;;14.70;61.72;97338.97;4961080;28;109876;-90
2023/10/18 19:00:25;;;;;;;13.37;8.10;;;14.50;94.10;;;14.70;61.71;97327.84;4966336;28;109273;-87
2023/10/18 19:02:55;;;;;;;10.17;7.30;;;14.40;94.00;;;14.70;61.67;97327.84;4965359;28;124604;-91
2023/10/18 19:05:23;;;;;;;9.73;7.03;;;14.40;94.00;;;14.70;61.69;97322.28;4985477;28;123807;-88
2023/10/18 19:07:55;;;;;;;13.33;8.10;;;14.50;94.10;;;14.70;61.65;97313.97;4963847;28;109220;-89
2023/10/18 19:10:22;;;;;;;14.30;7.83;;;14.10;93.90;;;14.67;61.61;97311.91;4956991;28;109262;-90
2023/10/18 19:12:50;;;;;;;10.83;7.77;;;14.40;94.00;;;14.65;61.62;97317.84;4967981;28;123008;-91
2023/10/18 19:15:17;;;;;;;11.80;7.97;;;14.40;94.10;;;14.64;61.65;97318.22;4968055;28;123834;-90